createdAt,value
2023-03-30T00:01:12.484Z,1.30
2023-03-30T00:03:39.282Z,1.27
2023-03-30T00:06:07.262Z,1.42
2023-03-30T00:08:33.868Z,2.10
2023-03-30T00:11:11.898Z,1.92
2023-03-30T00:13:39.989Z,2.50
2023-03-30T00:16:08.881Z,1.30
2023-03-30T00:18:36.661Z,1.45
2023-03-30T00:21:05.002Z,1.50
2023-03-30T00:23:32.506Z,1.55
2023-03-30T00:25:59.412Z,1.17
2023-03-30T00:28:26.693Z,1.20
2023-03-30T00:30:53.738Z,1.40
2023-03-30T00:33:30.305Z,1.15
2023-03-30T00:36:04.492Z,1.65
2023-03-30T00:38:30.874Z,2.05
2023-03-30T00:41:00.629Z,2.22
2023-03-30T00:43:28.672Z,1.58
2023-03-30T00:45:58.597Z,1.23
2023-03-30T00:48:27.766Z,1.23
2023-03-30T00:51:05.427Z,2.00
2023-03-30T00:53:34.553Z,1.65
2023-03-30T00:56:03.064Z,1.83
2023-03-30T00:58:31.484Z,1.92
2023-03-30T01:01:03.266Z,1.80
2023-03-30T01:03:44.087Z,1.60
2023-03-30T01:06:12.042Z,1.05
2023-03-30T01:08:39.163Z,1.88
2023-03-30T01:11:07.205Z,3.20
2023-03-30T01:13:39.268Z,1.95
2023-03-30T01:16:45.302Z,2.40
2023-03-30T01:19:50.602Z,2.35
2023-03-30T01:22:56.900Z,1.70
2023-03-30T01:25:29.437Z,2.25
2023-03-30T01:28:01.813Z,2.08
2023-03-30T01:31:02.273Z,1.67
2023-03-30T01:33:46.962Z,2.45
2023-03-30T01:36:35.128Z,1.80
2023-03-30T01:39:07.487Z,1.65
2023-03-30T01:41:48.652Z,2.33
2023-03-30T01:44:45.933Z,2.13
2023-03-30T01:47:50.134Z,1.80
2023-03-30T01:50:26.143Z,2.30
2023-03-30T01:53:10.665Z,2.40
2023-03-30T01:55:46.581Z,1.77
2023-03-30T01:58:20.618Z,2.13
2023-03-30T02:00:50.541Z,2.30
2023-03-30T02:03:28.175Z,2.13
2023-03-30T02:06:04.256Z,2.40
2023-03-30T02:08:33.641Z,2.95
2023-03-30T02:11:00.396Z,2.03
2023-03-30T02:13:30.678Z,2.00
2023-03-30T02:16:02.594Z,1.90
2023-03-30T02:18:29.178Z,2.17
2023-03-30T02:20:59.214Z,2.10
2023-03-30T02:23:31.816Z,2.28
2023-03-30T02:25:58.282Z,1.67
2023-03-30T02:28:25.482Z,1.60
2023-03-30T02:30:51.910Z,2.05
2023-03-30T02:33:28.607Z,2.35
2023-03-30T02:36:00.936Z,2.90
2023-03-30T02:38:49.251Z,3.05
2023-03-30T02:41:24.068Z,2.17
2023-03-30T02:46:41.830Z,1.55
2023-03-30T02:49:08.611Z,1.23
2023-03-30T02:51:50.506Z,2.13
2023-03-30T02:54:42.270Z,1.58
2023-03-30T02:57:21.206Z,1.70
2023-03-30T02:59:58.262Z,2.22
2023-03-30T03:02:37.820Z,1.77
2023-03-30T03:05:05.179Z,1.70
2023-03-30T03:07:34.338Z,1.52
2023-03-30T03:10:01.411Z,1.42
2023-03-30T03:12:28.788Z,1.90
2023-03-30T03:14:55.162Z,1.13
2023-03-30T03:17:22.976Z,1.60
2023-03-30T03:19:49.863Z,1.67
2023-03-30T03:22:16.935Z,1.55
2023-03-30T03:24:45.134Z,1.40
2023-03-30T03:27:11.751Z,1.55
2023-03-30T03:29:38.569Z,1.50
2023-03-30T03:32:04.938Z,2.15
2023-03-30T03:34:31.775Z,1.60
2023-03-30T03:36:59.093Z,2.42
2023-03-30T03:39:25.792Z,1.73
2023-03-30T03:41:52.783Z,2.22
2023-03-30T03:44:19.114Z,1.42
2023-03-30T03:46:45.615Z,1.50
2023-03-30T03:49:12.494Z,1.55
2023-03-30T03:51:38.980Z,2.28
2023-03-30T03:54:05.451Z,1.73
2023-03-30T03:56:32.464Z,1.88
2023-03-30T03:58:58.811Z,2.22
2023-03-30T04:01:25.388Z,2.30
2023-03-30T04:03:52.055Z,1.38
2023-03-30T04:06:18.386Z,1.25
2023-03-30T04:08:45.087Z,1.58
2023-03-30T04:11:12.394Z,2.50
2023-03-30T04:13:39.392Z,2.78
2023-03-30T04:16:07.257Z,5.30
2023-03-30T04:18:35.084Z,10.25
2023-03-30T04:21:05.320Z,7.65
2023-03-30T04:23:33.788Z,5.00
2023-03-30T04:26:04.821Z,4.20
2023-03-30T04:28:32.898Z,2.90
2023-03-30T04:31:01.165Z,2.92
2023-03-30T04:33:28.547Z,3.25
2023-03-30T04:35:55.610Z,3.58
2023-03-30T04:38:24.947Z,3.03
2023-03-30T04:40:52.844Z,3.53
2023-03-30T04:43:22.807Z,2.75
2023-03-30T04:45:54.580Z,2.85
2023-03-30T04:48:22.508Z,2.50
2023-03-30T04:50:50.356Z,2.97
2023-03-30T04:53:18.556Z,3.22
2023-03-30T04:55:49.583Z,4.32
2023-03-30T04:58:16.362Z,3.25
2023-03-30T05:00:43.255Z,3.10
2023-03-30T05:03:09.622Z,3.03
2023-03-30T05:05:36.555Z,4.55
2023-03-30T05:08:03.266Z,3.78
2023-03-30T05:10:29.966Z,2.70
2023-03-30T05:12:57.216Z,2.65
2023-03-30T05:15:23.614Z,2.20
2023-03-30T05:17:50.012Z,2.17
2023-03-30T05:20:18.421Z,2.25
2023-03-30T05:22:46.864Z,1.95
2023-03-30T05:25:13.321Z,2.42
2023-03-30T05:27:40.288Z,2.00
2023-03-30T05:30:08.202Z,1.85
2023-03-30T05:32:34.672Z,2.30
2023-03-30T05:35:01.693Z,1.52
2023-03-30T05:37:28.023Z,2.22
2023-03-30T05:39:54.362Z,2.17
2023-03-30T05:42:21.485Z,2.17
2023-03-30T05:44:48.197Z,3.03
2023-03-30T05:47:14.532Z,2.80
2023-03-30T05:49:41.134Z,3.80
2023-03-30T05:52:07.547Z,3.67
2023-03-30T05:54:34.092Z,2.85
2023-03-30T05:57:00.785Z,2.58
2023-03-30T05:59:27.584Z,3.28
2023-03-30T06:01:54.177Z,3.35
2023-03-30T06:04:20.624Z,4.47
2023-03-30T06:06:47.384Z,3.13
2023-03-30T06:09:13.726Z,2.75
2023-03-30T06:11:40.815Z,2.88
2023-03-30T06:14:07.188Z,3.30
2023-03-30T06:16:33.569Z,2.35
2023-03-30T06:19:00.306Z,2.33
2023-03-30T06:21:26.660Z,2.17
2023-03-30T06:23:53.030Z,3.35
2023-03-30T06:26:19.762Z,2.83
2023-03-30T06:28:46.087Z,2.63
2023-03-30T06:31:13.248Z,2.90
2023-03-30T06:33:41.687Z,3.05
2023-03-30T06:36:13.675Z,2.95
2023-03-30T06:38:40.275Z,3.00
2023-03-30T06:41:09.818Z,3.65
2023-03-30T06:43:37.726Z,4.03
2023-03-30T06:46:05.894Z,3.38
2023-03-30T06:48:32.945Z,3.40
2023-03-30T06:50:59.700Z,3.65
2023-03-30T06:53:26.376Z,2.70
2023-03-30T06:55:55.454Z,3.42
2023-03-30T06:58:22.157Z,2.70
2023-03-30T07:00:48.990Z,2.33
2023-03-30T07:03:19.535Z,2.67
2023-03-30T07:05:52.558Z,2.92
2023-03-30T07:08:19.998Z,2.78
2023-03-30T07:10:47.781Z,3.13
2023-03-30T07:13:16.456Z,3.42
2023-03-30T07:15:45.841Z,4.78
2023-03-30T07:18:12.864Z,2.88
2023-03-30T07:20:39.660Z,3.20
2023-03-30T07:23:06.390Z,3.83
2023-03-30T07:25:32.707Z,3.30
2023-03-30T07:27:59.516Z,3.13
2023-03-30T07:30:26.113Z,2.80
2023-03-30T07:32:53.889Z,2.97
2023-03-30T07:35:21.927Z,2.72
2023-03-30T07:37:50.869Z,3.22
2023-03-30T07:40:18.024Z,4.18
2023-03-30T07:42:45.190Z,4.85
2023-03-30T07:45:14.153Z,3.80
2023-03-30T07:47:42.425Z,4.13
2023-03-30T07:50:10.332Z,3.47
2023-03-30T07:52:36.890Z,4.18
2023-03-30T07:55:03.898Z,4.22
2023-03-30T07:57:30.981Z,3.90
2023-03-30T07:59:57.360Z,3.22
2023-03-30T08:02:23.735Z,3.78
2023-03-30T08:04:50.713Z,3.03
2023-03-30T08:07:17.690Z,2.78
2023-03-30T08:09:46.103Z,2.85
2023-03-30T08:12:12.451Z,2.45
2023-03-30T08:14:38.825Z,2.08
2023-03-30T08:17:05.601Z,2.80
2023-03-30T08:19:32.036Z,2.35
2023-03-30T08:22:01.613Z,2.13
2023-03-30T08:24:28.326Z,2.70
2023-03-30T08:26:55.287Z,2.63
2023-03-30T08:29:21.868Z,2.33
2023-03-30T08:31:48.364Z,2.40
2023-03-30T08:34:15.585Z,2.35
2023-03-30T08:36:41.901Z,2.53
2023-03-30T08:39:08.722Z,3.95
2023-03-30T08:41:41.587Z,2.83
2023-03-30T08:44:26.964Z,2.50
2023-03-30T08:46:54.674Z,2.70
2023-03-30T08:49:22.202Z,2.85
2023-03-30T08:51:52.993Z,2.53
2023-03-30T08:54:22.705Z,2.50
2023-03-30T08:57:18.345Z,3.80
2023-03-30T08:59:56.675Z,2.75
2023-03-30T09:02:30.180Z,3.95
2023-03-30T09:05:05.038Z,3.72
2023-03-30T09:07:45.009Z,3.38
2023-03-30T09:10:14.049Z,2.47
2023-03-30T09:12:48.038Z,3.10
2023-03-30T09:15:27.603Z,6.38
2023-03-30T09:18:17.247Z,3.70
2023-03-30T09:20:46.719Z,3.38
2023-03-30T09:23:17.560Z,2.83
2023-03-30T09:25:53.672Z,3.83
2023-03-30T09:28:26.279Z,3.38
2023-03-30T09:31:00.911Z,2.95
2023-03-30T09:36:23.807Z,3.70
2023-03-30T09:38:50.266Z,2.80
2023-03-30T09:41:17.669Z,2.80
2023-03-30T09:43:46.897Z,2.45
2023-03-30T09:46:15.697Z,2.72
2023-03-30T09:48:47.599Z,2.00
2023-03-30T09:51:31.313Z,2.60
2023-03-30T09:54:01.746Z,2.38
2023-03-30T09:56:43.574Z,1.70
2023-03-30T09:59:32.254Z,3.00
2023-03-30T10:02:15.820Z,3.15
2023-03-30T10:04:54.287Z,3.80
2023-03-30T10:07:31.803Z,1.80
2023-03-30T10:10:01.721Z,1.60
2023-03-30T10:12:30.298Z,1.83
2023-03-30T10:15:01.910Z,2.38
2023-03-30T10:17:29.198Z,2.22
2023-03-30T10:20:17.584Z,1.65
2023-03-30T10:22:55.976Z,1.73
2023-03-30T10:25:27.808Z,1.55
2023-03-30T10:27:57.273Z,1.80
2023-03-30T10:30:27.063Z,2.40
2023-03-30T10:32:56.431Z,1.90
2023-03-30T10:35:33.313Z,1.90
2023-03-30T10:38:02.928Z,2.05
2023-03-30T10:40:37.056Z,1.30
2023-03-30T10:43:06.861Z,2.70
2023-03-30T10:45:48.658Z,2.30
2023-03-30T10:48:36.866Z,2.05
2023-03-30T10:51:44.013Z,1.85
2023-03-30T10:54:23.170Z,1.67
2023-03-30T10:56:54.414Z,2.00
2023-03-30T10:59:46.969Z,1.75
2023-03-30T11:02:24.740Z,1.55
2023-03-30T11:05:25.946Z,1.90
2023-03-30T11:07:55.758Z,1.50
2023-03-30T11:10:29.639Z,1.42
2023-03-30T11:13:06.463Z,1.67
2023-03-30T11:15:43.550Z,1.40
2023-03-30T11:18:22.337Z,1.63
2023-03-30T11:21:02.801Z,1.95
2023-03-30T11:23:49.059Z,1.63
2023-03-30T11:26:29.931Z,1.92
2023-03-30T11:29:17.893Z,2.40
2023-03-30T11:31:59.411Z,1.83
2023-03-30T11:35:07.573Z,1.80
2023-03-30T11:37:42.806Z,1.90
2023-03-30T11:40:27.975Z,2.00
2023-03-30T11:42:55.277Z,2.10
2023-03-30T11:46:02.016Z,1.95
2023-03-30T11:48:40.663Z,2.50
2023-03-30T11:51:21.043Z,2.00
2023-03-30T11:53:53.238Z,2.28
2023-03-30T11:56:40.474Z,2.30
2023-03-30T11:59:18.601Z,2.95
2023-03-30T12:02:27.443Z,2.13
2023-03-30T12:05:11.881Z,2.38
2023-03-30T12:07:58.613Z,2.33
2023-03-30T12:10:31.061Z,2.53
2023-03-30T12:12:58.047Z,2.33
2023-03-30T12:15:54.309Z,1.48
2023-03-30T12:18:39.486Z,1.67
2023-03-30T12:23:56.583Z,1.50
2023-03-30T12:26:29.477Z,1.73
2023-03-30T12:31:50.689Z,1.50
2023-03-30T12:34:18.154Z,1.23
2023-03-30T12:36:58.050Z,1.63
2023-03-30T12:39:49.633Z,2.25
2023-03-30T12:42:35.529Z,1.20
2023-03-30T12:45:27.063Z,1.23
2023-03-30T12:48:24.587Z,1.90
2023-03-30T12:51:13.442Z,2.08
2023-03-30T12:53:51.872Z,1.98
2023-03-30T12:56:38.380Z,1.55
2023-03-30T12:59:41.338Z,1.67
2023-03-30T13:02:32.779Z,1.48
2023-03-30T13:04:59.596Z,1.70
2023-03-30T13:07:35.544Z,2.38
2023-03-30T13:10:22.136Z,2.22
2023-03-30T13:12:50.041Z,1.95
2023-03-30T13:15:16.861Z,2.83
2023-03-30T13:17:55.498Z,2.65
2023-03-30T13:20:32.754Z,2.15
2023-03-30T13:23:25.768Z,2.20
2023-03-30T13:26:04.734Z,2.08
2023-03-30T13:28:55.304Z,2.83
2023-03-30T13:31:42.284Z,2.22
2023-03-30T13:34:30.421Z,2.70
2023-03-30T13:37:15.852Z,2.17
2023-03-30T13:40:07.321Z,2.42
2023-03-30T13:42:58.101Z,1.77
2023-03-30T13:45:36.434Z,2.70
2023-03-30T13:48:27.995Z,3.00
2023-03-30T13:51:00.439Z,2.70
2023-03-30T13:53:31.497Z,2.90
2023-03-30T13:55:57.957Z,1.92
2023-03-30T13:58:32.907Z,2.70
2023-03-30T14:01:09.968Z,2.78
2023-03-30T14:03:49.780Z,2.35
2023-03-30T14:06:22.563Z,2.33
2023-03-30T14:08:57.817Z,2.67
2023-03-30T14:11:33.269Z,2.42
2023-03-30T14:14:03.567Z,2.53
2023-03-30T14:16:38.711Z,2.92
2023-03-30T14:19:25.770Z,3.03
2023-03-30T14:22:01.720Z,2.15
2023-03-30T14:24:33.649Z,3.22
2023-03-30T14:27:06.656Z,3.20
2023-03-30T14:29:33.287Z,2.80
2023-03-30T14:32:09.121Z,3.05
2023-03-30T14:34:36.565Z,2.60
2023-03-30T14:37:12.237Z,2.55
2023-03-30T14:39:45.751Z,2.50
2023-03-30T14:42:20.629Z,1.98
2023-03-30T14:44:49.820Z,2.17
2023-03-30T14:47:20.713Z,1.80
2023-03-30T14:49:47.842Z,1.77
2023-03-30T14:52:22.962Z,1.60
2023-03-30T14:55:05.328Z,2.60
2023-03-30T14:57:38.424Z,2.17
2023-03-30T15:00:18.421Z,2.20
2023-03-30T15:02:46.617Z,2.65
2023-03-30T15:05:17.302Z,1.33
2023-03-30T15:07:48.020Z,2.20
2023-03-30T15:10:35.788Z,1.80
2023-03-30T15:13:03.282Z,1.33
2023-03-30T15:15:31.920Z,2.42
2023-03-30T15:18:00.296Z,1.92
2023-03-30T15:20:29.530Z,1.85
2023-03-30T15:22:56.649Z,2.53
2023-03-30T15:25:35.780Z,2.42
2023-03-30T15:28:06.915Z,1.55
2023-03-30T15:30:40.427Z,2.28
2023-03-30T15:33:36.785Z,2.00
2023-03-30T15:36:26.349Z,2.17
2023-03-30T15:38:55.203Z,1.42
2023-03-30T15:41:24.451Z,1.90
2023-03-30T15:44:12.173Z,2.03
2023-03-30T15:46:40.377Z,2.17
2023-03-30T15:49:08.128Z,2.33
2023-03-30T15:51:58.604Z,2.30
2023-03-30T15:54:38.758Z,2.70
2023-03-30T15:57:14.477Z,1.92
2023-03-30T15:59:45.573Z,1.60
2023-03-30T16:02:18.620Z,1.60
2023-03-30T16:04:45.114Z,2.28
2023-03-30T16:07:18.447Z,1.58
2023-03-30T16:09:45.953Z,1.33
2023-03-30T16:12:15.973Z,1.40
2023-03-30T16:14:42.801Z,1.23
2023-03-30T16:17:13.529Z,1.50
2023-03-30T16:19:41.203Z,1.25
2023-03-30T16:22:13.226Z,1.15
2023-03-30T16:24:40.760Z,1.40
2023-03-30T16:27:07.839Z,1.27
2023-03-30T16:29:34.579Z,0.85
2023-03-30T16:32:01.176Z,1.63
2023-03-30T16:34:27.936Z,1.10
2023-03-30T16:36:54.817Z,1.10
2023-03-30T16:39:21.223Z,1.20
2023-03-30T16:41:49.394Z,1.38
2023-03-30T16:44:17.995Z,0.95
2023-03-30T16:46:44.950Z,0.77
2023-03-30T16:49:14.207Z,0.82
2023-03-30T16:51:41.782Z,0.90
2023-03-30T16:54:13.761Z,1.20
2023-03-30T16:56:50.258Z,0.70
2023-03-30T16:59:21.858Z,0.93
2023-03-30T17:01:48.388Z,0.80
2023-03-30T17:04:14.794Z,0.82
2023-03-30T17:06:41.225Z,0.80
2023-03-30T17:09:15.223Z,0.80
2023-03-30T17:11:41.549Z,1.10
2023-03-30T17:14:07.854Z,1.00
2023-03-30T17:16:35.194Z,0.68
2023-03-30T17:19:01.869Z,1.42
2023-03-30T17:21:28.409Z,0.57
2023-03-30T17:23:55.121Z,1.10
2023-03-30T17:26:21.868Z,1.00
2023-03-30T17:28:48.255Z,1.10
2023-03-30T17:31:18.343Z,1.17
2023-03-30T17:33:46.032Z,0.90
2023-03-30T17:36:21.902Z,0.80
2023-03-30T17:38:48.992Z,0.93
2023-03-30T17:41:19.048Z,0.98
2023-03-30T17:43:48.426Z,0.90
2023-03-30T17:46:17.234Z,1.00
2023-03-30T17:48:43.630Z,1.15
2023-03-30T17:51:10.364Z,0.90
2023-03-30T17:53:36.995Z,0.98
2023-03-30T17:56:03.563Z,0.93
2023-03-30T17:58:34.364Z,0.90
2023-03-30T18:01:02.712Z,0.85
2023-03-30T18:03:29.460Z,0.90
2023-03-30T18:05:58.073Z,0.90
2023-03-30T18:08:25.150Z,0.80
2023-03-30T18:10:55.928Z,0.80
2023-03-30T18:13:24.211Z,0.80
2023-03-30T18:15:54.608Z,1.40
2023-03-30T18:18:25.057Z,1.02
2023-03-30T18:20:53.929Z,0.98
2023-03-30T18:23:20.837Z,0.95
2023-03-30T18:25:48.270Z,0.90
2023-03-30T18:28:23.000Z,0.88
2023-03-30T18:33:16.944Z,1.20
2023-03-30T18:35:45.003Z,1.50
2023-03-30T18:38:13.054Z,0.95
2023-03-30T18:40:41.973Z,1.13
2023-03-30T18:43:08.315Z,1.20
2023-03-30T18:45:38.474Z,1.30
2023-03-30T18:48:07.138Z,0.95
2023-03-30T18:50:47.124Z,1.10
2023-03-30T18:53:16.660Z,1.10
2023-03-30T18:55:45.953Z,1.05
2023-03-30T18:58:20.442Z,1.30
2023-03-30T19:00:48.607Z,1.10
2023-03-30T19:03:16.734Z,0.93
2023-03-30T19:05:44.429Z,1.00
2023-03-30T19:08:16.668Z,1.17
2023-03-30T19:10:44.837Z,1.27
2023-03-30T19:13:13.416Z,1.08
2023-03-30T19:15:41.033Z,1.08
2023-03-30T19:18:08.056Z,0.93
2023-03-30T19:20:37.925Z,1.38
2023-03-30T19:23:04.657Z,1.00
2023-03-30T19:25:31.217Z,1.25
2023-03-30T19:28:03.758Z,1.35
2023-03-30T19:30:33.014Z,1.33
2023-03-30T19:33:02.348Z,1.02
2023-03-30T19:35:29.586Z,1.77
2023-03-30T19:37:56.833Z,0.80
2023-03-30T19:40:23.704Z,1.10
2023-03-30T19:42:50.776Z,0.90
2023-03-30T19:45:20.900Z,1.25
2023-03-30T19:47:47.749Z,1.13
2023-03-30T19:50:18.299Z,1.50
2023-03-30T19:52:51.123Z,1.10
2023-03-30T19:55:19.236Z,1.23
2023-03-30T19:57:45.978Z,1.20
2023-03-30T20:00:16.235Z,1.10
2023-03-30T20:02:45.732Z,1.30
2023-03-30T20:05:13.199Z,1.10
2023-03-30T20:07:41.325Z,1.10
2023-03-30T20:10:10.224Z,0.90
2023-03-30T20:12:37.089Z,1.17
2023-03-30T20:15:08.618Z,1.10
2023-03-30T20:17:36.212Z,0.93
2023-03-30T20:20:06.548Z,1.00
2023-03-30T20:22:36.359Z,1.00
2023-03-30T20:25:03.969Z,1.17
2023-03-30T20:27:30.300Z,1.20
2023-03-30T20:29:57.030Z,1.17
2023-03-30T20:32:23.349Z,1.30
2023-03-30T20:34:49.711Z,1.23
2023-03-30T20:37:16.685Z,1.40
2023-03-30T20:39:43.791Z,1.60
2023-03-30T20:42:10.455Z,1.40
2023-03-30T20:44:39.936Z,1.50
2023-03-30T20:47:08.511Z,2.00
2023-03-30T20:49:35.009Z,1.95
2023-03-30T20:52:02.265Z,2.25
2023-03-30T20:54:29.700Z,2.38
2023-03-30T20:56:56.487Z,2.45
2023-03-30T20:59:23.082Z,2.55
2023-03-30T21:01:51.805Z,2.80
2023-03-30T21:04:19.538Z,2.33
2023-03-30T21:06:46.669Z,1.90
2023-03-30T21:09:13.153Z,2.67
2023-03-30T21:11:39.934Z,2.85
2023-03-30T21:14:09.158Z,3.25
2023-03-30T21:16:37.790Z,4.13
2023-03-30T21:19:05.630Z,3.55
2023-03-30T21:21:33.752Z,3.65
2023-03-30T21:24:00.615Z,3.55
2023-03-30T21:26:29.051Z,3.75
2023-03-30T21:28:56.061Z,4.50
2023-03-30T21:31:23.294Z,5.00
2023-03-30T21:33:50.000Z,5.20
2023-03-30T21:36:16.542Z,4.78
2023-03-30T21:38:43.001Z,4.50
2023-03-30T21:41:13.205Z,4.47
2023-03-30T21:43:42.893Z,6.43
2023-03-30T21:46:12.341Z,7.03
2023-03-30T21:48:40.529Z,5.88
2023-03-30T21:51:35.853Z,6.55
2023-03-30T21:54:02.177Z,6.82
2023-03-30T21:56:31.073Z,4.43
2023-03-30T21:58:58.549Z,4.88
2023-03-30T22:01:25.595Z,8.02
2023-03-30T22:03:53.644Z,5.72
2023-03-30T22:06:21.127Z,4.68
2023-03-30T22:08:48.487Z,3.50
2023-03-30T22:11:17.708Z,2.90
2023-03-30T22:13:46.194Z,2.08
2023-03-30T22:16:16.603Z,2.70
2023-03-30T22:18:43.838Z,2.20
2023-03-30T22:21:17.126Z,1.88
2023-03-30T22:23:44.723Z,1.88
2023-03-30T22:26:12.529Z,1.85
2023-03-30T22:28:38.877Z,2.13
2023-03-30T22:31:14.479Z,2.00
2023-03-30T22:33:41.411Z,2.55
2023-03-30T22:36:19.771Z,2.90
2023-03-30T22:38:47.524Z,2.08
2023-03-30T22:41:14.495Z,2.33
2023-03-30T22:43:41.438Z,2.63
2023-03-30T22:46:08.337Z,3.15
2023-03-30T22:48:35.544Z,3.47
2023-03-30T22:51:04.276Z,2.90
2023-03-30T22:53:31.699Z,4.28
2023-03-30T22:55:58.046Z,3.97
2023-03-30T22:58:24.363Z,2.20
2023-03-30T23:00:51.726Z,3.78
2023-03-30T23:03:18.542Z,3.92
2023-03-30T23:05:51.898Z,4.18
2023-03-30T23:08:18.769Z,3.38
2023-03-30T23:10:46.151Z,3.80
2023-03-30T23:13:13.730Z,3.83
2023-03-30T23:15:40.434Z,3.10
2023-03-30T23:18:07.231Z,3.85
2023-03-30T23:20:33.596Z,3.05
2023-03-30T23:22:59.911Z,2.38
2023-03-30T23:25:26.780Z,2.70
2023-03-30T23:27:53.088Z,2.53
2023-03-30T23:30:19.481Z,2.35
2023-03-30T23:32:46.483Z,2.80
2023-03-30T23:35:12.836Z,2.53
2023-03-30T23:37:40.806Z,2.30
2023-03-30T23:40:08.221Z,1.70
2023-03-30T23:42:34.686Z,1.77
2023-03-30T23:45:01.517Z,2.25
2023-03-30T23:47:27.889Z,1.42
2023-03-30T23:49:54.313Z,2.70
2023-03-30T23:52:21.027Z,1.38
2023-03-30T23:54:52.042Z,2.50
2023-03-30T23:57:19.804Z,1.70
2023-03-30T23:59:46.996Z,1.88
